Terminal Aerodrome Forecast
Issued by NWS Jacksonville, FL

Home | Current Version | Previous Version | Text Only | Print | Product List | Glossary On
Versions: 1 2 3 4 5 6 7 8 9 10 11 12
000
FTUS42 KJAX 032320
TAFJAX
TAF
KJAX 032320Z 0400/0424 12008KT P6SM SKC
     FM040100 VRB03KT P6SM SKC
     FM041400 09012G16KT P6SM SCT040
     FM041800 09012G16KT P6SM BKN100=

USA.gov is the U.S. government's official web portal to all federal, state and local government web resources and services.